Impacts METAR Board
IDs:

KBOS - Boston/Logan Intl, MA, US

Updated at: 1300 UTC 07 Jul 2020
Potential Impact None Slight Moderate High
Time 07/01Z 07/02Z 07/03Z 07/04Z 07/05Z 07/06Z 07/07Z 07/08Z 07/09Z 07/10Z 07/11Z 07/12Z 07/13Z
Temp64 64 64 63 63 63 63 63 63 64 63 66 66
Dewpt60 61 61 61 60 60 60 61 61 62 61 62 61
Altim30.13 30.16 30.16 30.16 30.17 30.17 30.15 30.16 30.17 30.18 30.19 30.19 30.19
VIS10 10 10 10 10 10 10 10 10 10 10 10 10
CIG-- -- -- -- -- 90 -- 70 70 65 65 250 130
CoverFEWSCTSCTSCTSCTBKNSCTOVCBKNBKNBKNBKNBKN
FltCatVFRVFRVFRVFRVFRVFRVFRVFRVFRVFRVFRVFRVFR
WX--------------------------
WDir100150160150180170130140170180130130130
WSpd10 8 7 4 6 5 3 4 5 4 6 6 7
WGst-- -- -- -- -- -- -- -- -- -- -- -- --
Raw hourly METARs
KBOS 070054Z 10010KT 10SM FEW090 FEW250 18/16 A3013 RMK AO2 SLP203 T01780156 $
KBOS 070154Z 15008KT 10SM FEW008 SCT080 SCT250 18/16 A3016 RMK AO2 SLP212 T01780161 $
KBOS 070254Z 16007KT 10SM FEW012 SCT080 18/16 A3016 RMK AO2 SLP211 T01780161 50010 $
KBOS 070354Z 15004KT 10SM FEW012 SCT080 17/16 A3016 RMK AO2 SLP214 T01720161 $
KBOS 070454Z 18006KT 10SM FEW015 SCT090 17/16 A3017 RMK AO2 SLP214 T01720156 402110172 $
KBOS 070554Z 17005KT 10SM FEW015 BKN090 17/16 A3017 RMK AO2 SLP216 T01720156 10183 20167 51004 $
KBOS 070654Z 13003KT 10SM SCT100 17/16 A3015 RMK AO2 SLP210 T01720156 $
KBOS 070754Z 14004KT 10SM BKN070 OVC080 17/16 A3016 RMK AO2 SLP212 T01720161 $
KBOS 070854Z 17005KT 10SM FEW012 BKN070 17/16 A3017 RMK AO2 SLP215 T01720161 55000 $
KBOS 070954Z 18004KT 10SM FEW012 BKN065 BKN250 18/17 A3018 RMK AO2 SLP219 T01780167 $
KBOS 071054Z 13006KT 10SM SCT007 BKN065 BKN250 17/16 A3019 RMK AO2 SLP223 T01720161 $
KBOS 071154Z 13006KT 10SM FEW008 SCT085 BKN250 19/17 A3019 RMK AO2 SLP222 T01890167 10189 20172 50006 $
KBOS 071254Z 13007KT 10SM FEW007 SCT080 BKN130 BKN250 19/16 A3019 RMK AO2 SLP222 T01890161 $



Page loaded:  13:12 UTC  |   06:12 AM Pacific  |   07:12 AM Mountain  |   08:12 AM Central  |   09:12 AM Eastern

 

ADVISORIES

FORECASTS

FORECASTS

OBSERVATIONS

USER TOOLS

ABOUT US